sensor_id;sensor_type;location;lat;lon;timestamp;P1;durP1;ratioP1;P2;durP2;ratioP2
25435;SDS011;13363;52.772;-3.890;2023-04-01T00:00:21;13.13;;;6.57;;
25435;SDS011;13363;52.772;-3.890;2023-04-01T00:02:47;12.17;;;6.20;;
25435;SDS011;13363;52.772;-3.890;2023-04-01T00:05:13;11.57;;;6.20;;
25435;SDS011;13363;52.772;-3.890;2023-04-01T00:07:39;8.43;;;6.40;;
25435;SDS011;13363;52.772;-3.890;2023-04-01T00:10:09;10.70;;;6.70;;
25435;SDS011;13363;52.772;-3.890;2023-04-01T00:12:36;11.50;;;5.90;;
25435;SDS011;13363;52.772;-3.890;2023-04-01T00:15:03;10.73;;;6.47;;
25435;SDS011;13363;52.772;-3.890;2023-04-01T00:17:31;12.13;;;6.57;;
25435;SDS011;13363;52.772;-3.890;2023-04-01T00:19:57;13.70;;;5.80;;
25435;SDS011;13363;52.772;-3.890;2023-04-01T00:22:23;12.27;;;6.17;;
25435;SDS011;13363;52.772;-3.890;2023-04-01T00:24:49;10.43;;;6.20;;
25435;SDS011;13363;52.772;-3.890;2023-04-01T00:27:15;10.10;;;6.23;;
25435;SDS011;13363;52.772;-3.890;2023-04-01T00:29:42;13.57;;;6.30;;
25435;SDS011;13363;52.772;-3.890;2023-04-01T00:32:08;18.47;;;6.67;;
25435;SDS011;13363;52.772;-3.890;2023-04-01T00:34:34;7.40;;;4.70;;
25435;SDS011;13363;52.772;-3.890;2023-04-01T00:37:00;6.00;;;4.83;;
25435;SDS011;13363;52.772;-3.890;2023-04-01T00:39:28;8.47;;;4.97;;
25435;SDS011;13363;52.772;-3.890;2023-04-01T00:41:55;9.00;;;5.00;;
25435;SDS011;13363;52.772;-3.890;2023-04-01T00:44:33;5.50;;;4.33;;
25435;SDS011;13363;52.772;-3.890;2023-04-01T00:47:00;3.40;;;3.20;;
25435;SDS011;13363;52.772;-3.890;2023-04-01T00:49:33;5.10;;;3.30;;
25435;SDS011;13363;52.772;-3.890;2023-04-01T00:52:03;2.70;;;2.50;;
25435;SDS011;13363;52.772;-3.890;2023-04-01T00:54:31;4.13;;;3.67;;
25435;SDS011;13363;52.772;-3.890;2023-04-01T00:57:03;6.60;;;4.60;;
25435;SDS011;13363;52.772;-3.890;2023-04-01T00:59:35;5.83;;;3.47;;
25435;SDS011;13363;52.772;-3.890;2023-04-01T01:02:07;4.13;;;3.00;;
25435;SDS011;13363;52.772;-3.890;2023-04-01T01:04:34;3.40;;;3.10;;
25435;SDS011;13363;52.772;-3.890;2023-04-01T01:12:26;3.27;;;2.97;;
25435;SDS011;13363;52.772;-3.890;2023-04-01T01:15:10;3.63;;;3.30;;
25435;SDS011;13363;52.772;-3.890;2023-04-01T01:20:55;6.97;;;4.00;;
25435;SDS011;13363;52.772;-3.890;2023-04-01T01:23:57;6.27;;;3.80;;
25435;SDS011;13363;52.772;-3.890;2023-04-01T01:36:55;4.60;;;4.20;;
25435;SDS011;13363;52.772;-3.890;2023-04-01T01:39:25;4.53;;;3.63;;
25435;SDS011;13363;52.772;-3.890;2023-04-01T01:41:58;4.50;;;4.10;;
25435;SDS011;13363;52.772;-3.890;2023-04-01T01:44:29;4.33;;;3.80;;
25435;SDS011;13363;52.772;-3.890;2023-04-01T01:46:57;4.53;;;4.03;;
25435;SDS011;13363;52.772;-3.890;2023-04-01T01:49:23;3.63;;;3.33;;
25435;SDS011;13363;52.772;-3.890;2023-04-01T01:51:50;7.43;;;3.57;;
25435;SDS011;13363;52.772;-3.890;2023-04-01T01:54:16;4.47;;;3.30;;
25435;SDS011;13363;52.772;-3.890;2023-04-01T01:56:44;5.20;;;4.70;;
25435;SDS011;13363;52.772;-3.890;2023-04-01T01:59:13;4.87;;;4.30;;
25435;SDS011;13363;52.772;-3.890;2023-04-01T02:01:43;4.20;;;3.90;;
25435;SDS011;13363;52.772;-3.890;2023-04-01T02:04:13;6.47;;;4.03;;
25435;SDS011;13363;52.772;-3.890;2023-04-01T02:06:42;4.07;;;3.70;;
25435;SDS011;13363;52.772;-3.890;2023-04-01T02:09:12;3.50;;;3.27;;
25435;SDS011;13363;52.772;-3.890;2023-04-01T02:11:41;3.80;;;3.50;;
25435;SDS011;13363;52.772;-3.890;2023-04-01T02:14:15;3.13;;;2.93;;
25435;SDS011;13363;52.772;-3.890;2023-04-01T02:19:14;3.10;;;2.63;;
25435;SDS011;13363;52.772;-3.890;2023-04-01T02:21:47;2.93;;;2.60;;
25435;SDS011;13363;52.772;-3.890;2023-04-01T02:24:17;3.03;;;2.70;;
25435;SDS011;13363;52.772;-3.890;2023-04-01T02:26:47;3.30;;;3.10;;
25435;SDS011;13363;52.772;-3.890;2023-04-01T02:29:16;4.33;;;3.50;;
25435;SDS011;13363;52.772;-3.890;2023-04-01T02:31:44;3.30;;;3.00;;
25435;SDS011;13363;52.772;-3.890;2023-04-01T02:34:10;2.57;;;2.47;;
25435;SDS011;13363;52.772;-3.890;2023-04-01T02:36:37;2.73;;;2.53;;
25435;SDS011;13363;52.772;-3.890;2023-04-01T02:39:03;2.97;;;2.60;;
25435;SDS011;13363;52.772;-3.890;2023-04-01T02:41:30;3.13;;;2.90;;
25435;SDS011;13363;52.772;-3.890;2023-04-01T02:43:55;3.53;;;3.33;;
25435;SDS011;13363;52.772;-3.890;2023-04-01T02:46:23;3.43;;;3.23;;
25435;SDS011;13363;52.772;-3.890;2023-04-01T02:48:49;6.13;;;3.40;;
25435;SDS011;13363;52.772;-3.890;2023-04-01T02:51:15;3.03;;;2.83;;
25435;SDS011;13363;52.772;-3.890;2023-04-01T02:53:41;3.30;;;3.10;;
25435;SDS011;13363;52.772;-3.890;2023-04-01T02:56:06;1.80;;;1.70;;
25435;SDS011;13363;52.772;-3.890;2023-04-01T02:58:32;2.10;;;2.00;;
25435;SDS011;13363;52.772;-3.890;2023-04-01T03:00:58;2.00;;;1.90;;
25435;SDS011;13363;52.772;-3.890;2023-04-01T03:03:23;2.43;;;2.23;;
25435;SDS011;13363;52.772;-3.890;2023-04-01T03:05:49;3.57;;;2.83;;
25435;SDS011;13363;52.772;-3.890;2023-04-01T03:08:15;2.67;;;2.50;;
25435;SDS011;13363;52.772;-3.890;2023-04-01T03:10:41;2.30;;;2.20;;
25435;SDS011;13363;52.772;-3.890;2023-04-01T03:13:06;2.00;;;1.90;;
25435;SDS011;13363;52.772;-3.890;2023-04-01T03:15:32;1.47;;;1.37;;
25435;SDS011;13363;52.772;-3.890;2023-04-01T03:17:58;1.80;;;1.70;;
25435;SDS011;13363;52.772;-3.890;2023-04-01T03:20:23;1.77;;;1.67;;
25435;SDS011;13363;52.772;-3.890;2023-04-01T03:22:49;2.20;;;2.10;;
25435;SDS011;13363;52.772;-3.890;2023-04-01T03:25:15;1.60;;;1.60;;
25435;SDS011;13363;52.772;-3.890;2023-04-01T03:27:41;2.10;;;2.00;;
25435;SDS011;13363;52.772;-3.890;2023-04-01T03:30:07;2.20;;;2.10;;
25435;SDS011;13363;52.772;-3.890;2023-04-01T03:32:33;1.67;;;1.57;;
25435;SDS011;13363;52.772;-3.890;2023-04-01T03:34:59;2.33;;;2.13;;
25435;SDS011;13363;52.772;-3.890;2023-04-01T03:37:25;2.63;;;1.90;;
25435;SDS011;13363;52.772;-3.890;2023-04-01T03:39:51;2.23;;;2.13;;
25435;SDS011;13363;52.772;-3.890;2023-04-01T03:42:17;2.40;;;2.20;;
25435;SDS011;13363;52.772;-3.890;2023-04-01T03:44:42;2.37;;;2.27;;
25435;SDS011;13363;52.772;-3.890;2023-04-01T03:47:08;2.73;;;2.60;;
25435;SDS011;13363;52.772;-3.890;2023-04-01T03:49:34;2.77;;;2.30;;
25435;SDS011;13363;52.772;-3.890;2023-04-01T03:52:00;2.20;;;2.10;;
25435;SDS011;13363;52.772;-3.890;2023-04-01T03:54:26;1.40;;;1.40;;
25435;SDS011;13363;52.772;-3.890;2023-04-01T03:56:52;1.20;;;1.20;;
25435;SDS011;13363;52.772;-3.890;2023-04-01T03:59:17;1.60;;;1.50;;
25435;SDS011;13363;52.772;-3.890;2023-04-01T04:01:43;1.43;;;1.30;;
25435;SDS011;13363;52.772;-3.890;2023-04-01T04:04:12;2.63;;;1.03;;
25435;SDS011;13363;52.772;-3.890;2023-04-01T04:06:40;1.03;;;1.03;;
25435;SDS011;13363;52.772;-3.890;2023-04-01T04:09:06;1.40;;;1.40;;
25435;SDS011;13363;52.772;-3.890;2023-04-01T04:11:32;1.40;;;1.30;;
25435;SDS011;13363;52.772;-3.890;2023-04-01T04:13:58;2.17;;;1.50;;
25435;SDS011;13363;52.772;-3.890;2023-04-01T04:16:24;1.63;;;1.40;;
25435;SDS011;13363;52.772;-3.890;2023-04-01T04:18:50;1.40;;;1.40;;
25435;SDS011;13363;52.772;-3.890;2023-04-01T04:21:18;1.13;;;1.13;;
25435;SDS011;13363;52.772;-3.890;2023-04-01T04:23:44;1.17;;;1.17;;
25435;SDS011;13363;52.772;-3.890;2023-04-01T04:26:11;1.43;;;1.43;;
25435;SDS011;13363;52.772;-3.890;2023-04-01T04:28:38;1.50;;;1.40;;
25435;SDS011;13363;52.772;-3.890;2023-04-01T04:31:04;1.93;;;1.60;;
25435;SDS011;13363;52.772;-3.890;2023-04-01T04:33:31;2.50;;;1.57;;
25435;SDS011;13363;52.772;-3.890;2023-04-01T04:35:58;2.33;;;1.90;;
25435;SDS011;13363;52.772;-3.890;2023-04-01T04:38:25;2.37;;;2.27;;
25435;SDS011;13363;52.772;-3.890;2023-04-01T04:40:51;1.40;;;1.30;;
25435;SDS011;13363;52.772;-3.890;2023-04-01T04:43:17;1.53;;;1.43;;
25435;SDS011;13363;52.772;-3.890;2023-04-01T04:45:44;4.60;;;1.50;;
25435;SDS011;13363;52.772;-3.890;2023-04-01T04:48:10;3.03;;;1.67;;
25435;SDS011;13363;52.772;-3.890;2023-04-01T04:50:46;1.60;;;1.60;;
25435;SDS011;13363;52.772;-3.890;2023-04-01T04:53:16;1.67;;;1.60;;
25435;SDS011;13363;52.772;-3.890;2023-04-01T04:55:43;1.70;;;1.60;;
25435;SDS011;13363;52.772;-3.890;2023-04-01T04:58:10;1.70;;;1.60;;
25435;SDS011;13363;52.772;-3.890;2023-04-01T05:00:35;1.90;;;1.80;;
25435;SDS011;13363;52.772;-3.890;2023-04-01T05:03:01;1.67;;;1.57;;
25435;SDS011;13363;52.772;-3.890;2023-04-01T05:05:27;1.50;;;1.40;;
25435;SDS011;13363;52.772;-3.890;2023-04-01T05:07:52;1.70;;;1.47;;
25435;SDS011;13363;52.772;-3.890;2023-04-01T05:10:18;1.80;;;1.70;;
25435;SDS011;13363;52.772;-3.890;2023-04-01T05:12:45;1.77;;;1.67;;
25435;SDS011;13363;52.772;-3.890;2023-04-01T05:15:11;1.90;;;1.80;;
25435;SDS011;13363;52.772;-3.890;2023-04-01T05:17:37;2.50;;;1.90;;
25435;SDS011;13363;52.772;-3.890;2023-04-01T05:20:03;2.07;;;1.97;;
25435;SDS011;13363;52.772;-3.890;2023-04-01T05:22:29;2.90;;;1.80;;
25435;SDS011;13363;52.772;-3.890;2023-04-01T05:24:55;1.97;;;1.50;;
25435;SDS011;13363;52.772;-3.890;2023-04-01T05:27:21;3.80;;;2.10;;
25435;SDS011;13363;52.772;-3.890;2023-04-01T05:29:46;2.63;;;1.90;;
25435;SDS011;13363;52.772;-3.890;2023-04-01T05:32:12;1.97;;;1.87;;
25435;SDS011;13363;52.772;-3.890;2023-04-01T05:34:38;3.17;;;2.87;;
25435;SDS011;13363;52.772;-3.890;2023-04-01T05:37:04;2.00;;;1.90;;
25435;SDS011;13363;52.772;-3.890;2023-04-01T05:39:29;2.00;;;1.90;;
25435;SDS011;13363;52.772;-3.890;2023-04-01T05:41:55;1.93;;;1.83;;
25435;SDS011;13363;52.772;-3.890;2023-04-01T05:44:21;1.67;;;1.43;;
25435;SDS011;13363;52.772;-3.890;2023-04-01T05:46:47;2.10;;;2.00;;
25435;SDS011;13363;52.772;-3.890;2023-04-01T05:49:12;2.03;;;1.93;;
25435;SDS011;13363;52.772;-3.890;2023-04-01T05:51:38;2.87;;;2.17;;
25435;SDS011;13363;52.772;-3.890;2023-04-01T05:54:04;1.73;;;1.63;;
25435;SDS011;13363;52.772;-3.890;2023-04-01T05:56:30;2.10;;;2.00;;
25435;SDS011;13363;52.772;-3.890;2023-04-01T05:58:56;2.10;;;2.00;;
25435;SDS011;13363;52.772;-3.890;2023-04-01T06:01:22;2.10;;;2.00;;
25435;SDS011;13363;52.772;-3.890;2023-04-01T06:03:47;2.03;;;1.93;;
25435;SDS011;13363;52.772;-3.890;2023-04-01T06:06:14;2.10;;;2.00;;
25435;SDS011;13363;52.772;-3.890;2023-04-01T06:08:53;2.20;;;1.93;;
25435;SDS011;13363;52.772;-3.890;2023-04-01T06:14:16;2.13;;;2.03;;
25435;SDS011;13363;52.772;-3.890;2023-04-01T06:19:55;2.67;;;2.47;;
25435;SDS011;13363;52.772;-3.890;2023-04-01T06:48:02;4.80;;;4.40;;
25435;SDS011;13363;52.772;-3.890;2023-04-01T06:50:55;5.00;;;4.60;;
25435;SDS011;13363;52.772;-3.890;2023-04-01T06:56:29;4.23;;;3.93;;
25435;SDS011;13363;52.772;-3.890;2023-04-01T07:01:45;5.43;;;5.03;;
25435;SDS011;13363;52.772;-3.890;2023-04-01T07:04:15;5.50;;;4.93;;
25435;SDS011;13363;52.772;-3.890;2023-04-01T07:06:50;4.93;;;4.53;;
25435;SDS011;13363;52.772;-3.890;2023-04-01T07:09:24;5.10;;;4.60;;
25435;SDS011;13363;52.772;-3.890;2023-04-01T07:11:53;4.60;;;4.30;;
25435;SDS011;13363;52.772;-3.890;2023-04-01T07:17:14;5.03;;;4.57;;
25435;SDS011;13363;52.772;-3.890;2023-04-01T07:19:53;4.73;;;4.03;;
25435;SDS011;13363;52.772;-3.890;2023-04-01T07:22:32;5.30;;;4.90;;
25435;SDS011;13363;52.772;-3.890;2023-04-01T07:25:16;6.17;;;5.60;;
25435;SDS011;13363;52.772;-3.890;2023-04-01T07:27:47;5.53;;;5.13;;
25435;SDS011;13363;52.772;-3.890;2023-04-01T07:30:15;5.37;;;4.97;;
25435;SDS011;13363;52.772;-3.890;2023-04-01T07:35:25;6.07;;;4.20;;
25435;SDS011;13363;52.772;-3.890;2023-04-01T07:48:39;4.53;;;4.23;;
25435;SDS011;13363;52.772;-3.890;2023-04-01T07:54:26;5.20;;;4.70;;
25435;SDS011;13363;52.772;-3.890;2023-04-01T07:57:15;5.03;;;4.70;;
25435;SDS011;13363;52.772;-3.890;2023-04-01T08:05:28;5.03;;;4.67;;
25435;SDS011;13363;52.772;-3.890;2023-04-01T08:14:08;4.73;;;4.43;;
25435;SDS011;13363;52.772;-3.890;2023-04-01T08:22:39;4.73;;;4.27;;
25435;SDS011;13363;52.772;-3.890;2023-04-01T08:25:29;4.20;;;3.90;;
25435;SDS011;13363;52.772;-3.890;2023-04-01T08:28:19;4.87;;;4.57;;
25435;SDS011;13363;52.772;-3.890;2023-04-01T08:33:56;4.90;;;4.60;;
25435;SDS011;13363;52.772;-3.890;2023-04-01T08:36:24;4.73;;;4.43;;
25435;SDS011;13363;52.772;-3.890;2023-04-01T08:39:02;4.53;;;4.23;;
25435;SDS011;13363;52.772;-3.890;2023-04-01T08:49:38;4.90;;;4.60;;
25435;SDS011;13363;52.772;-3.890;2023-04-01T09:00:31;5.70;;;5.30;;
25435;SDS011;13363;52.772;-3.890;2023-04-01T09:06:22;5.50;;;5.00;;
25435;SDS011;13363;52.772;-3.890;2023-04-01T09:23:26;5.17;;;4.87;;
25435;SDS011;13363;52.772;-3.890;2023-04-01T09:26:13;5.90;;;5.50;;
25435;SDS011;13363;52.772;-3.890;2023-04-01T09:28:53;6.33;;;5.87;;
25435;SDS011;13363;52.772;-3.890;2023-04-01T09:31:41;5.80;;;5.37;;
25435;SDS011;13363;52.772;-3.890;2023-04-01T09:36:44;6.10;;;5.53;;
25435;SDS011;13363;52.772;-3.890;2023-04-01T09:39:46;5.70;;;5.30;;
25435;SDS011;13363;52.772;-3.890;2023-04-01T09:45:01;5.13;;;4.80;;
25435;SDS011;13363;52.772;-3.890;2023-04-01T09:48:02;5.97;;;5.37;;
25435;SDS011;13363;52.772;-3.890;2023-04-01T09:54:00;5.53;;;5.07;;
25435;SDS011;13363;52.772;-3.890;2023-04-01T10:02:11;5.20;;;4.90;;
25435;SDS011;13363;52.772;-3.890;2023-04-01T10:07:41;5.40;;;5.00;;
25435;SDS011;13363;52.772;-3.890;2023-04-01T10:24:55;7.63;;;7.03;;
25435;SDS011;13363;52.772;-3.890;2023-04-01T10:27:32;7.60;;;6.90;;
25435;SDS011;13363;52.772;-3.890;2023-04-01T10:46:53;5.07;;;4.67;;
25435;SDS011;13363;52.772;-3.890;2023-04-01T10:49:43;6.13;;;5.63;;
25435;SDS011;13363;52.772;-3.890;2023-04-01T10:55:11;4.00;;;3.73;;
25435;SDS011;13363;52.772;-3.890;2023-04-01T11:00:38;3.10;;;2.90;;
25435;SDS011;13363;52.772;-3.890;2023-04-01T11:15:26;1.90;;;1.80;;
25435;SDS011;13363;52.772;-3.890;2023-04-01T11:26:17;1.40;;;1.30;;
25435;SDS011;13363;52.772;-3.890;2023-04-01T11:31:35;1.30;;;1.30;;
25435;SDS011;13363;52.772;-3.890;2023-04-01T11:34:27;1.20;;;1.20;;
25435;SDS011;13363;52.772;-3.890;2023-04-01T11:42:49;0.90;;;0.90;;
25435;SDS011;13363;52.772;-3.890;2023-04-01T11:53:41;3.53;;;3.43;;
25435;SDS011;13363;52.772;-3.890;2023-04-01T11:58:53;10.97;;;10.07;;
25435;SDS011;13363;52.772;-3.890;2023-04-01T12:12:26;1.30;;;1.03;;
25435;SDS011;13363;52.772;-3.890;2023-04-01T12:15:11;2.70;;;2.50;;
25435;SDS011;13363;52.772;-3.890;2023-04-01T12:17:50;1.03;;;0.80;;
25435;SDS011;13363;52.772;-3.890;2023-04-01T12:20:30;0.77;;;0.53;;
25435;SDS011;13363;52.772;-3.890;2023-04-01T12:31:06;1.87;;;1.77;;
25435;SDS011;13363;52.772;-3.890;2023-04-01T12:33:45;3.83;;;3.53;;
25435;SDS011;13363;52.772;-3.890;2023-04-01T12:41:54;0.60;;;0.60;;
25435;SDS011;13363;52.772;-3.890;2023-04-01T12:55:47;0.60;;;0.60;;
25435;SDS011;13363;52.772;-3.890;2023-04-01T13:01:18;4.77;;;3.57;;
25435;SDS011;13363;52.772;-3.890;2023-04-01T13:04:12;2.07;;;1.97;;
25435;SDS011;13363;52.772;-3.890;2023-04-01T13:06:47;2.50;;;2.30;;
25435;SDS011;13363;52.772;-3.890;2023-04-01T13:09:36;1.93;;;1.83;;
25435;SDS011;13363;52.772;-3.890;2023-04-01T13:12:40;1.57;;;1.20;;
25435;SDS011;13363;52.772;-3.890;2023-04-01T13:23:50;0.40;;;0.40;;
25435;SDS011;13363;52.772;-3.890;2023-04-01T13:26:44;0.40;;;0.40;;
25435;SDS011;13363;52.772;-3.890;2023-04-01T13:29:34;1.87;;;1.20;;
25435;SDS011;13363;52.772;-3.890;2023-04-01T13:43:19;1.67;;;1.57;;
25435;SDS011;13363;52.772;-3.890;2023-04-01T14:10:34;0.80;;;0.40;;
25435;SDS011;13363;52.772;-3.890;2023-04-01T14:27:00;1.50;;;0.53;;
25435;SDS011;13363;52.772;-3.890;2023-04-01T14:51:39;0.30;;;0.20;;
25435;SDS011;13363;52.772;-3.890;2023-04-01T14:54:13;0.30;;;0.30;;
25435;SDS011;13363;52.772;-3.890;2023-04-01T14:56:51;0.30;;;0.30;;
25435;SDS011;13363;52.772;-3.890;2023-04-01T14:59:27;0.70;;;0.70;;
25435;SDS011;13363;52.772;-3.890;2023-04-01T15:04:49;1.23;;;1.13;;
25435;SDS011;13363;52.772;-3.890;2023-04-01T15:21:50;0.77;;;0.67;;
25435;SDS011;13363;52.772;-3.890;2023-04-01T15:30:01;1.27;;;0.67;;
25435;SDS011;13363;52.772;-3.890;2023-04-01T15:32:52;0.50;;;0.50;;
25435;SDS011;13363;52.772;-3.890;2023-04-01T15:35:30;0.77;;;0.77;;
25435;SDS011;13363;52.772;-3.890;2023-04-01T15:40:56;0.60;;;0.60;;
25435;SDS011;13363;52.772;-3.890;2023-04-01T15:43:43;3.60;;;0.50;;
25435;SDS011;13363;52.772;-3.890;2023-04-01T15:54:27;0.53;;;0.53;;
25435;SDS011;13363;52.772;-3.890;2023-04-01T16:02:49;0.60;;;0.60;;
25435;SDS011;13363;52.772;-3.890;2023-04-01T16:19:39;0.60;;;0.60;;
25435;SDS011;13363;52.772;-3.890;2023-04-01T16:30:38;0.30;;;0.30;;
25435;SDS011;13363;52.772;-3.890;2023-04-01T16:39:06;0.40;;;0.40;;
25435;SDS011;13363;52.772;-3.890;2023-04-01T16:41:49;2.37;;;0.53;;
25435;SDS011;13363;52.772;-3.890;2023-04-01T16:44:22;0.70;;;0.70;;
25435;SDS011;13363;52.772;-3.890;2023-04-01T16:46:53;0.30;;;0.30;;
25435;SDS011;13363;52.772;-3.890;2023-04-01T16:49:32;0.30;;;0.30;;
25435;SDS011;13363;52.772;-3.890;2023-04-01T16:54:39;0.23;;;0.23;;
25435;SDS011;13363;52.772;-3.890;2023-04-01T17:02:26;0.40;;;0.40;;
25435;SDS011;13363;52.772;-3.890;2023-04-01T17:24:09;0.37;;;0.37;;
25435;SDS011;13363;52.772;-3.890;2023-04-01T17:35:14;0.50;;;0.50;;
25435;SDS011;13363;52.772;-3.890;2023-04-01T17:40:41;0.57;;;0.43;;
25435;SDS011;13363;52.772;-3.890;2023-04-01T17:46:50;0.40;;;0.40;;
25435;SDS011;13363;52.772;-3.890;2023-04-01T17:49:05;0.50;;;0.50;;
25435;SDS011;13363;52.772;-3.890;2023-04-01T17:52:27;0.30;;;0.30;;
25435;SDS011;13363;52.772;-3.890;2023-04-01T17:54:39;0.43;;;0.43;;
25435;SDS011;13363;52.772;-3.890;2023-04-01T18:05:59;0.57;;;0.57;;
25435;SDS011;13363;52.772;-3.890;2023-04-01T18:09:00;0.50;;;0.50;;
25435;SDS011;13363;52.772;-3.890;2023-04-01T18:11:53;0.70;;;0.70;;
25435;SDS011;13363;52.772;-3.890;2023-04-01T18:17:31;1.40;;;0.80;;
25435;SDS011;13363;52.772;-3.890;2023-04-01T18:21:14;0.60;;;0.60;;
25435;SDS011;13363;52.772;-3.890;2023-04-01T18:25:49;1.80;;;0.60;;
25435;SDS011;13363;52.772;-3.890;2023-04-01T18:31:11;0.50;;;0.50;;
25435;SDS011;13363;52.772;-3.890;2023-04-01T18:36:16;1.20;;;0.60;;
25435;SDS011;13363;52.772;-3.890;2023-04-01T18:38:49;0.83;;;0.40;;
25435;SDS011;13363;52.772;-3.890;2023-04-01T18:41:35;0.87;;;0.60;;
25435;SDS011;13363;52.772;-3.890;2023-04-01T18:49:21;0.63;;;0.40;;
25435;SDS011;13363;52.772;-3.890;2023-04-01T18:52:28;0.80;;;0.50;;
25435;SDS011;13363;52.772;-3.890;2023-04-01T18:57:25;1.23;;;0.43;;
25435;SDS011;13363;52.772;-3.890;2023-04-01T19:02:41;1.17;;;0.70;;
25435;SDS011;13363;52.772;-3.890;2023-04-01T19:05:33;0.67;;;0.53;;
25435;SDS011;13363;52.772;-3.890;2023-04-01T19:13:28;0.70;;;0.70;;
25435;SDS011;13363;52.772;-3.890;2023-04-01T19:21:55;0.60;;;0.60;;
25435;SDS011;13363;52.772;-3.890;2023-04-01T19:26:56;0.53;;;0.53;;
25435;SDS011;13363;52.772;-3.890;2023-04-01T19:40:34;1.17;;;0.53;;
25435;SDS011;13363;52.772;-3.890;2023-04-01T20:02:38;1.60;;;0.97;;
25435;SDS011;13363;52.772;-3.890;2023-04-01T20:05:16;0.73;;;0.70;;
25435;SDS011;13363;52.772;-3.890;2023-04-01T20:08:07;2.10;;;0.80;;
25435;SDS011;13363;52.772;-3.890;2023-04-01T20:13:28;1.43;;;0.80;;
25435;SDS011;13363;52.772;-3.890;2023-04-01T20:16:08;0.90;;;0.90;;
25435;SDS011;13363;52.772;-3.890;2023-04-01T20:21:18;1.47;;;1.13;;
25435;SDS011;13363;52.772;-3.890;2023-04-01T20:26:45;2.27;;;0.93;;
25435;SDS011;13363;52.772;-3.890;2023-04-01T20:37:44;2.50;;;0.90;;
25435;SDS011;13363;52.772;-3.890;2023-04-01T20:45:58;1.20;;;0.93;;
25435;SDS011;13363;52.772;-3.890;2023-04-01T20:49:10;0.90;;;0.90;;
25435;SDS011;13363;52.772;-3.890;2023-04-01T20:57:28;2.40;;;1.00;;
25435;SDS011;13363;52.772;-3.890;2023-04-01T21:00:22;0.80;;;0.80;;
25435;SDS011;13363;52.772;-3.890;2023-04-01T21:03:10;3.10;;;1.27;;
25435;SDS011;13363;52.772;-3.890;2023-04-01T21:11:08;1.10;;;1.00;;
25435;SDS011;13363;52.772;-3.890;2023-04-01T21:19:53;1.10;;;1.00;;
25435;SDS011;13363;52.772;-3.890;2023-04-01T21:25:00;2.43;;;0.90;;
25435;SDS011;13363;52.772;-3.890;2023-04-01T21:30:25;1.63;;;0.90;;
25435;SDS011;13363;52.772;-3.890;2023-04-01T21:40:40;0.90;;;0.90;;
25435;SDS011;13363;52.772;-3.890;2023-04-01T21:48:52;3.17;;;1.10;;
25435;SDS011;13363;52.772;-3.890;2023-04-01T21:51:43;1.20;;;1.10;;
25435;SDS011;13363;52.772;-3.890;2023-04-01T22:00:08;1.60;;;0.77;;
25435;SDS011;13363;52.772;-3.890;2023-04-01T22:13:45;1.87;;;0.90;;
25435;SDS011;13363;52.772;-3.890;2023-04-01T22:21:51;2.50;;;0.83;;
25435;SDS011;13363;52.772;-3.890;2023-04-01T22:24:32;1.30;;;1.20;;
25435;SDS011;13363;52.772;-3.890;2023-04-01T22:32:29;1.80;;;0.97;;
25435;SDS011;13363;52.772;-3.890;2023-04-01T22:40:31;2.20;;;1.30;;
25435;SDS011;13363;52.772;-3.890;2023-04-01T22:43:32;1.07;;;1.00;;
25435;SDS011;13363;52.772;-3.890;2023-04-01T22:46:19;1.80;;;1.20;;
25435;SDS011;13363;52.772;-3.890;2023-04-01T22:49:10;1.17;;;1.07;;
25435;SDS011;13363;52.772;-3.890;2023-04-01T22:52:05;1.23;;;0.90;;
25435;SDS011;13363;52.772;-3.890;2023-04-01T22:54:43;1.10;;;1.00;;
25435;SDS011;13363;52.772;-3.890;2023-04-01T22:57:28;1.43;;;1.30;;
25435;SDS011;13363;52.772;-3.890;2023-04-01T23:00:05;2.03;;;1.00;;
25435;SDS011;13363;52.772;-3.890;2023-04-01T23:05:47;1.93;;;1.20;;
25435;SDS011;13363;52.772;-3.890;2023-04-01T23:11:04;3.73;;;1.40;;
25435;SDS011;13363;52.772;-3.890;2023-04-01T23:13:38;1.10;;;1.07;;
25435;SDS011;13363;52.772;-3.890;2023-04-01T23:16:09;3.33;;;1.23;;
25435;SDS011;13363;52.772;-3.890;2023-04-01T23:18:46;2.23;;;1.03;;
25435;SDS011;13363;52.772;-3.890;2023-04-01T23:21:50;1.67;;;1.27;;
25435;SDS011;13363;52.772;-3.890;2023-04-01T23:24:26;2.83;;;1.13;;
25435;SDS011;13363;52.772;-3.890;2023-04-01T23:26:59;3.07;;;0.97;;
25435;SDS011;13363;52.772;-3.890;2023-04-01T23:29:29;1.37;;;1.27;;
25435;SDS011;13363;52.772;-3.890;2023-04-01T23:32:02;2.93;;;1.20;;
25435;SDS011;13363;52.772;-3.890;2023-04-01T23:34:35;1.50;;;1.27;;
25435;SDS011;13363;52.772;-3.890;2023-04-01T23:37:03;2.50;;;1.20;;
25435;SDS011;13363;52.772;-3.890;2023-04-01T23:39:42;4.80;;;1.20;;
25435;SDS011;13363;52.772;-3.890;2023-04-01T23:42:15;1.63;;;1.53;;
25435;SDS011;13363;52.772;-3.890;2023-04-01T23:44:55;1.73;;;1.30;;
25435;SDS011;13363;52.772;-3.890;2023-04-01T23:47:37;1.03;;;1.03;;
25435;SDS011;13363;52.772;-3.890;2023-04-01T23:50:16;0.83;;;0.83;;
25435;SDS011;13363;52.772;-3.890;2023-04-01T23:53:03;1.70;;;1.23;;
25435;SDS011;13363;52.772;-3.890;2023-04-01T23:55:38;2.33;;;1.00;;
25435;SDS011;13363;52.772;-3.890;2023-04-01T23:58:18;2.70;;;1.43;;
